Time;durP1;ratioP1;P1;durP2;ratioP2;P2;SDS_P1;SDS_P2;PMS_P1;PMS_P2;Temp;Humidity;BMP_temperature;BMP_pressure;BME280_temperature;BME280_humidity;BME280_pressure;Samples;Min_cycle;Max_cycle;Signal;HPM_P1;HPM_P2
2022/01/12 00:02:11;;;;;;;;;;;15.80;37.10;;;;;;8365720;28;19921;-47
2022/01/12 00:06:14;;;;;;;;;;;15.80;37.10;;;;;;8365281;28;19917;-46
2022/01/12 00:10:14;;;;;;;;;;;15.80;37.10;;;;;;8365558;28;19925;-47
2022/01/12 00:14:16;;;;;;;;;;;15.80;37.10;;;;;;8365883;28;19920;-46
2022/01/12 00:18:16;;;;;;;;;;;15.90;37.10;;;;;;8365005;28;19963;-47
2022/01/12 00:22:16;;;;;;;;;;;15.80;37.00;;;;;;8365145;28;19924;-47
2022/01/12 00:34:51;;;;;;;;;;;15.90;37.00;;;;;;8364402;28;19958;-47
2022/01/12 00:38:52;;;;;;;;;;;15.90;36.90;;;;;;8364461;28;19913;-46
2022/01/12 00:42:53;;;;;;;;;;;15.90;36.90;;;;;;8364940;28;19925;-47
2022/01/12 00:46:53;;;;;;;;;;;15.90;36.90;;;;;;8364347;28;20404;-47
2022/01/12 00:50:54;;;;;;;;;;;15.90;36.90;;;;;;8363776;28;19924;-46
2022/01/12 00:54:54;;;;;;;;;;;15.90;36.90;;;;;;8364593;28;19919;-46
2022/01/12 00:58:54;;;;;;;;;;;15.80;36.90;;;;;;8364380;28;20390;-47
2022/01/12 01:02:55;;;;;;;;;;;15.80;36.90;;;;;;8363502;28;19970;-48
2022/01/12 01:06:56;;;;;;;;;;;15.80;36.90;;;;;;8364109;28;20339;-47
2022/01/12 01:10:56;;;;;;;;;;;15.80;36.90;;;;;;8363555;28;19932;-47
2022/01/12 01:15:08;;;;;;;;;;;15.80;36.90;;;;;;8363369;28;20277;-47
2022/01/12 01:27:47;;;;;;;;;;;15.80;37.00;;;;;;8362870;28;19925;-46
2022/01/12 01:31:48;;;;;;;;;;;15.70;36.90;;;;;;8363166;28;19932;-46
2022/01/12 01:35:53;;;;;;;;;;;15.70;36.90;;;;;;8363026;28;19917;-47
2022/01/12 01:39:54;;;;;;;;;;;15.70;36.90;;;;;;8362266;28;19917;-47
2022/01/12 01:44:31;;;;;;;;;;;15.70;36.90;;;;;;8362781;28;19924;-47
2022/01/12 01:57:05;;;;;;;;;;;15.70;36.90;;;;;;8364556;28;19971;-47
2022/01/12 02:01:06;;;;;;;;;;;15.70;36.90;;;;;;8363074;28;19913;-46
2022/01/12 02:05:06;;;;;;;;;;;15.80;36.90;;;;;;8344422;28;19991;-47
2022/01/12 02:09:07;;;;;;;;;;;15.70;36.80;;;;;;8361031;28;19925;-47
2022/01/12 02:13:09;;;;;;;;;;;15.80;36.90;;;;;;8362460;28;20366;-48
2022/01/12 02:17:17;;;;;;;;;;;15.80;36.90;;;;;;8362598;28;19970;-47
2022/01/12 02:42:40;;;;;;;;;;;15.80;36.70;;;;;;8361803;28;19917;-47
2022/01/12 02:55:13;;;;;;;;;;;15.80;36.70;;;;;;8369674;28;19913;-47
2022/01/12 02:59:14;;;;;;;;;;;15.70;36.70;;;;;;8367006;28;20352;-50
2022/01/12 03:03:21;;;;;;;;;;;15.70;36.70;;;;;;8367266;28;20366;-49
2022/01/12 03:07:23;;;;;;;;;;;15.70;36.70;;;;;;8369812;28;19925;-46
2022/01/12 03:11:24;;;;;;;;;;;15.70;36.70;;;;;;8367492;28;19931;-48
2022/01/12 03:15:24;;;;;;;;;;;15.70;36.80;;;;;;8367059;28;19912;-46
2022/01/12 03:19:25;;;;;;;;;;;15.70;36.70;;;;;;8367195;28;19921;-46
2022/01/12 03:23:25;;;;;;;;;;;15.70;36.80;;;;;;8367334;28;19920;-46
2022/01/12 03:27:27;;;;;;;;;;;15.70;36.80;;;;;;8366351;28;20015;-47
2022/01/12 03:31:29;;;;;;;;;;;15.60;37.30;;;;;;8366736;28;20279;-48
2022/01/12 03:35:48;;;;;;;;;;;15.70;36.80;;;;;;8366794;28;19959;-48
2022/01/12 03:39:48;;;;;;;;;;;15.60;36.80;;;;;;8366392;28;19925;-47
2022/01/12 03:43:49;;;;;;;;;;;15.60;36.70;;;;;;8366602;28;19924;-47
2022/01/12 03:47:49;;;;;;;;;;;15.60;36.70;;;;;;8366285;28;19948;-46
2022/01/12 03:51:50;;;;;;;;;;;15.60;36.70;;;;;;8365637;28;20369;-48
2022/01/12 03:55:51;;;;;;;;;;;15.60;36.70;;;;;;8366497;28;20008;-47
2022/01/12 03:59:51;;;;;;;;;;;15.60;36.60;;;;;;8366057;28;19923;-48
2022/01/12 04:04:06;;;;;;;;;;;15.60;36.70;;;;;;8365422;28;19924;-47
2022/01/12 04:08:21;;;;;;;;;;;15.60;36.60;;;;;;8365900;28;19917;-48
2022/01/12 04:12:22;;;;;;;;;;;15.70;36.60;;;;;;8365029;28;19929;-46
2022/01/12 04:16:23;;;;;;;;;;;15.70;36.60;;;;;;8365473;28;19931;-48
2022/01/12 04:20:24;;;;;;;;;;;15.70;36.60;;;;;;8365787;28;19920;-47
2022/01/12 04:24:24;;;;;;;;;;;15.70;36.50;;;;;;8364776;28;19948;-47
2022/01/12 04:28:25;;;;;;;;;;;15.70;36.50;;;;;;8365239;28;19916;-47
2022/01/12 04:32:27;;;;;;;;;;;15.70;36.50;;;;;;8364946;28;19920;-48
2022/01/12 04:36:27;;;;;;;;;;;15.70;36.60;;;;;;8364336;28;19957;-47
2022/01/12 04:40:28;;;;;;;;;;;15.70;36.40;;;;;;8365154;28;19928;-47
2022/01/12 04:44:28;;;;;;;;;;;15.70;36.50;;;;;;8364684;28;19985;-46
2022/01/12 04:52:29;;;;;;;;;;;15.70;36.50;;;;;;8364810;28;19919;-46
2022/01/12 04:56:30;;;;;;;;;;;15.70;36.50;;;;;;8363974;28;19917;-47
2022/01/12 05:00:32;;;;;;;;;;;15.70;36.40;;;;;;8363746;28;20393;-47
2022/01/12 05:09:07;;;;;;;;;;;15.70;36.40;;;;;;8363913;28;20008;-48
2022/01/12 05:13:07;;;;;;;;;;;15.70;36.40;;;;;;8363413;28;19917;-47
2022/01/12 05:17:08;;;;;;;;;;;15.60;36.40;;;;;;8363527;28;19970;-46
2022/01/12 05:21:08;;;;;;;;;;;15.60;36.40;;;;;;8362917;28;20003;-48
2022/01/12 05:25:09;;;;;;;;;;;15.70;36.40;;;;;;8363332;28;19923;-47
2022/01/12 05:29:09;;;;;;;;;;;15.60;36.40;;;;;;8363342;28;19925;-48
2022/01/12 05:33:10;;;;;;;;;;;15.60;36.40;;;;;;8362780;28;19920;-46
2022/01/12 05:37:10;;;;;;;;;;;15.60;36.40;;;;;;8363511;28;19959;-48
2022/01/12 05:41:11;;;;;;;;;;;15.60;36.40;;;;;;8363293;28;19916;-47
2022/01/12 05:45:11;;;;;;;;;;;15.60;36.40;;;;;;8362579;28;19929;-48
2022/01/12 05:53:31;;;;;;;;;;;15.50;36.40;;;;;;8366628;28;19920;-48
2022/01/12 05:57:32;;;;;;;;;;;15.50;36.40;;;;;;8362243;28;20334;-47
2022/01/12 06:01:32;;;;;;;;;;;15.50;36.40;;;;;;8362934;28;19913;-46
2022/01/12 06:05:33;;;;;;;;;;;15.50;36.40;;;;;;8362788;28;19917;-47
2022/01/12 06:09:33;;;;;;;;;;;15.50;36.40;;;;;;8362121;28;19982;-47
2022/01/12 06:13:34;;;;;;;;;;;15.50;36.40;;;;;;8362497;28;19917;-48
2022/01/12 06:17:35;;;;;;;;;;;15.50;36.30;;;;;;8362378;28;20055;-47
2022/01/12 06:21:35;;;;;;;;;;;15.60;36.30;;;;;;8362031;28;20473;-48
2022/01/12 06:25:36;;;;;;;;;;;15.60;36.30;;;;;;8362629;28;19917;-47
2022/01/12 06:29:43;;;;;;;;;;;15.60;36.30;;;;;;8362197;28;19925;-46
2022/01/12 06:33:44;;;;;;;;;;;15.60;36.20;;;;;;8367083;28;19924;-50
2022/01/12 06:37:45;;;;;;;;;;;15.60;36.20;;;;;;8368749;28;20413;-47
2022/01/12 06:41:46;;;;;;;;;;;15.70;36.20;;;;;;8368713;28;19920;-47
2022/01/12 06:45:46;;;;;;;;;;;15.60;36.20;;;;;;8367704;28;19917;-47
2022/01/12 06:49:47;;;;;;;;;;;15.60;36.10;;;;;;8368092;28;19947;-48
2022/01/12 06:53:47;;;;;;;;;;;15.70;36.20;;;;;;8368238;28;19917;-49
2022/01/12 06:57:48;;;;;;;;;;;15.60;36.10;;;;;;8367828;28;19920;-48
2022/01/12 07:01:48;;;;;;;;;;;15.60;36.10;;;;;;8368388;28;19923;-51
2022/01/12 07:05:49;;;;;;;;;;;15.60;36.10;;;;;;8367797;28;20406;-49
2022/01/12 07:09:50;;;;;;;;;;;15.60;36.10;;;;;;8367076;28;20298;-52
2022/01/12 07:13:50;;;;;;;;;;;15.60;36.60;;;;;;8367570;28;20300;-50
2022/01/12 07:17:50;;;;;;;;;;;15.50;36.10;;;;;;8367422;28;19916;-48
2022/01/12 07:21:51;;;;;;;;;;;15.50;36.00;;;;;;8366988;28;19913;-47
2022/01/12 07:25:52;;;;;;;;;;;15.50;36.10;;;;;;8367526;28;19963;-46
2022/01/12 07:29:53;;;;;;;;;;;15.50;36.00;;;;;;8366775;28;20399;-46
2022/01/12 07:33:56;;;;;;;;;;;15.50;36.00;;;;;;8367196;28;19917;-49
2022/01/12 07:37:56;;;;;;;;;;;15.50;36.00;;;;;;8366848;28;19963;-47
2022/01/12 07:41:57;;;;;;;;;;;15.50;36.10;;;;;;8366089;28;19970;-47
2022/01/12 07:45:58;;;;;;;;;;;15.50;36.00;;;;;;8366483;28;19924;-46
2022/01/12 07:49:59;;;;;;;;;;;15.50;36.10;;;;;;8366052;28;19931;-47
2022/01/12 07:53:59;;;;;;;;;;;15.50;36.10;;;;;;8365796;28;19912;-49
2022/01/12 07:58:00;;;;;;;;;;;15.50;36.10;;;;;;8366407;28;19913;-47
2022/01/12 08:02:00;;;;;;;;;;;15.50;36.10;;;;;;8366247;28;19917;-48
2022/01/12 08:06:01;;;;;;;;;;;15.50;36.10;;;;;;8365905;28;19923;-47
2022/01/12 08:10:02;;;;;;;;;;;15.50;36.10;;;;;;8364850;28;19978;-49
2022/01/12 08:14:03;;;;;;;;;;;15.50;36.20;;;;;;8365733;28;19913;-48
2022/01/12 08:18:03;;;;;;;;;;;15.50;36.10;;;;;;8365558;28;19924;-48
2022/01/12 08:22:04;;;;;;;;;;;15.50;36.10;;;;;;8365802;28;19917;-49
2022/01/12 08:26:05;;;;;;;;;;;15.50;36.00;;;;;;8365229;28;20339;-48
2022/01/12 08:30:06;;;;;;;;;;;15.50;36.00;;;;;;8364733;28;20290;-48
2022/01/12 08:34:07;;;;;;;;;;;15.60;36.10;;;;;;8365102;28;20374;-48
2022/01/12 08:38:07;;;;;;;;;;;15.60;36.10;;;;;;8364709;28;20008;-48
2022/01/12 08:42:08;;;;;;;;;;;15.60;36.00;;;;;;8364529;28;19923;-48
2022/01/12 08:46:11;;;;;;;;;;;15.60;36.00;;;;;;8364608;28;19925;-47
2022/01/12 08:50:12;;;;;;;;;;;15.70;36.00;;;;;;8364346;28;20044;-48
2022/01/12 08:54:13;;;;;;;;;;;15.60;36.00;;;;;;8363560;28;19925;-48
2022/01/12 08:58:14;;;;;;;;;;;15.70;36.00;;;;;;8364947;28;20378;-48
2022/01/12 09:02:15;;;;;;;;;;;15.60;35.90;;;;;;8364489;28;19970;-47
2022/01/12 09:06:15;;;;;;;;;;;15.60;35.90;;;;;;8363616;28;20277;-47
2022/01/12 09:10:16;;;;;;;;;;;15.60;35.90;;;;;;8363821;28;19925;-49
2022/01/12 09:14:16;;;;;;;;;;;15.60;35.90;;;;;;8364039;28;20277;-48
2022/01/12 09:18:18;;;;;;;;;;;15.60;35.90;;;;;;8363660;28;19956;-47
2022/01/12 09:22:19;;;;;;;;;;;15.60;35.80;;;;;;8363976;28;19944;-47
2022/01/12 09:26:20;;;;;;;;;;;15.60;35.90;;;;;;8363531;28;19948;-47
2022/01/12 09:30:23;;;;;;;;;;;15.60;35.90;;;;;;8362968;28;20034;-47
2022/01/12 09:34:23;;;;;;;;;;;15.60;36.00;;;;;;8363215;28;19940;-50
2022/01/12 09:38:24;;;;;;;;;;;15.50;35.90;;;;;;8363194;28;20348;-47
2022/01/12 09:42:24;;;;;;;;;;;15.60;35.90;;;;;;8362680;28;19917;-47
2022/01/12 09:46:28;;;;;;;;;;;15.60;36.00;;;;;;8363185;28;19923;-47
2022/01/12 09:50:28;;;;;;;;;;;15.60;36.00;;;;;;8362943;28;20066;-50
2022/01/12 09:54:29;;;;;;;;;;;15.50;35.80;;;;;;8362886;28;20332;-49
2022/01/12 09:58:33;;;;;;;;;;;15.60;35.90;;;;;;8363071;28;19920;-47
2022/01/12 10:02:33;;;;;;;;;;;15.60;36.00;;;;;;8362777;28;19955;-48
2022/01/12 10:06:35;;;;;;;;;;;15.50;35.90;;;;;;8365794;28;19979;-48
2022/01/12 10:10:35;;;;;;;;;;;15.50;35.90;;;;;;8369359;28;19925;-50
2022/01/12 10:14:38;;;;;;;;;;;15.50;35.90;;;;;;8369305;28;20370;-48
2022/01/12 10:18:45;;;;;;;;;;;15.50;35.90;;;;;;8368803;28;19925;-49
2022/01/12 10:23:02;;;;;;;;;;;15.60;36.00;;;;;;8369768;28;19920;-48
2022/01/12 10:27:09;;;;;;;;;;;15.50;36.00;;;;;;8368862;28;19948;-48
2022/01/12 10:31:15;;;;;;;;;;;15.60;36.00;;;;;;8368771;28;20320;-49
2022/01/12 10:35:24;;;;;;;;;;;15.60;36.20;;;;;;8368876;28;19940;-48
2022/01/12 10:39:26;;;;;;;;;;;15.60;36.00;;;;;;8368312;28;20358;-49
2022/01/12 10:43:38;;;;;;;;;;;15.60;35.90;;;;;;8369223;28;19952;-50
2022/01/12 10:47:39;;;;;;;;;;;15.60;35.90;;;;;;8368619;28;19920;-49
2022/01/12 10:51:41;;;;;;;;;;;15.70;35.90;;;;;;8361907;28;19935;-49
2022/01/12 10:55:42;;;;;;;;;;;15.70;35.90;;;;;;8334885;28;19917;-49
2022/01/12 10:59:45;;;;;;;;;;;15.70;35.80;;;;;;8335089;28;19971;-49
2022/01/12 11:03:47;;;;;;;;;;;15.70;35.80;;;;;;8319248;28;20320;-50
2022/01/12 11:07:48;;;;;;;;;;;15.70;35.70;;;;;;8310432;28;19917;-49
2022/01/12 11:11:48;;;;;;;;;;;15.80;35.80;;;;;;8335163;28;19932;-52
2022/01/12 11:15:49;;;;;;;;;;;15.80;35.70;;;;;;8334254;28;20460;-50
2022/01/12 11:19:52;;;;;;;;;;;15.80;35.80;;;;;;8334055;28;19917;-49
2022/01/12 11:23:56;;;;;;;;;;;15.70;35.80;;;;;;8334359;28;20330;-47
2022/01/12 11:28:08;;;;;;;;;;;15.80;35.80;;;;;;8333774;28;19917;-47
2022/01/12 11:32:12;;;;;;;;;;;15.70;35.80;;;;;;8334094;28;20367;-49
2022/01/12 11:36:24;;;;;;;;;;;15.70;35.80;;;;;;8334210;28;20290;-48
2022/01/12 11:40:32;;;;;;;;;;;15.70;35.80;;;;;;8333392;28;19925;-48
2022/01/12 11:44:36;;;;;;;;;;;15.80;35.90;;;;;;8333724;28;19970;-48
2022/01/12 11:48:42;;;;;;;;;;;15.70;35.90;;;;;;8333804;28;20379;-49
2022/01/12 11:52:43;;;;;;;;;;;15.70;35.90;;;;;;8333005;28;19925;-48
2022/01/12 11:56:54;;;;;;;;;;;15.70;35.90;;;;;;8333491;28;19960;-49
2022/01/12 12:00:54;;;;;;;;;;;15.70;36.00;;;;;;8332987;28;19963;-48
2022/01/12 12:04:56;;;;;;;;;;;15.70;35.90;;;;;;8333166;28;19917;-49
2022/01/12 12:09:01;;;;;;;;;;;15.70;35.90;;;;;;8332991;28;19979;-49
2022/01/12 12:13:02;;;;;;;;;;;15.70;35.90;;;;;;8332548;28;19948;-50
2022/01/12 12:17:03;;;;;;;;;;;15.70;35.90;;;;;;8332960;28;19949;-47
2022/01/12 12:21:03;;;;;;;;;;;15.70;35.90;;;;;;8332722;28;20267;-48
2022/01/12 12:25:06;;;;;;;;;;;15.70;36.00;;;;;;8332023;28;19921;-46
2022/01/12 12:29:07;;;;;;;;;;;15.70;36.00;;;;;;8331518;28;19925;-48
2022/01/12 12:33:12;;;;;;;;;;;15.70;35.90;;;;;;8332341;28;19923;-48
2022/01/12 12:37:16;;;;;;;;;;;15.70;35.90;;;;;;8331837;28;19925;-47
2022/01/12 12:41:17;;;;;;;;;;;15.80;36.00;;;;;;8331998;28;19917;-48
2022/01/12 12:45:17;;;;;;;;;;;15.70;35.90;;;;;;8332094;28;19953;-48
2022/01/12 12:49:18;;;;;;;;;;;15.80;35.90;;;;;;8331308;28;19925;-47
2022/01/12 12:53:18;;;;;;;;;;;15.70;35.90;;;;;;8332093;28;19923;-48
2022/01/12 12:57:21;;;;;;;;;;;15.70;35.90;;;;;;8331618;28;19921;-47
2022/01/12 13:01:24;;;;;;;;;;;15.70;35.90;;;;;;8331000;28;20397;-50
2022/01/12 13:05:26;;;;;;;;;;;15.70;35.90;;;;;;8331542;28;19998;-48
2022/01/12 13:09:26;;;;;;;;;;;15.70;35.90;;;;;;8330922;28;20445;-46
2022/01/12 13:13:27;;;;;;;;;;;15.70;35.80;;;;;;8330638;28;19917;-48
2022/01/12 13:17:27;;;;;;;;;;;15.70;35.90;;;;;;8331223;28;19913;-49
2022/01/12 13:21:28;;;;;;;;;;;15.70;35.90;;;;;;8330902;28;19925;-49
2022/01/12 13:25:28;;;;;;;;;;;15.80;35.90;;;;;;8330352;28;20298;-49
2022/01/12 13:29:29;;;;;;;;;;;15.80;35.90;;;;;;8330573;28;19925;-49
2022/01/12 13:33:37;;;;;;;;;;;15.70;35.90;;;;;;8330434;28;20285;-50
2022/01/12 13:37:39;;;;;;;;;;;15.70;35.80;;;;;;8330145;28;19966;-48
2022/01/12 13:41:45;;;;;;;;;;;15.80;35.90;;;;;;8329889;28;19921;-49
2022/01/12 13:45:49;;;;;;;;;;;15.70;35.80;;;;;;8332628;28;19913;-49
2022/01/12 13:49:59;;;;;;;;;;;15.70;35.80;;;;;;8330019;28;20305;-49
2022/01/12 13:54:09;;;;;;;;;;;15.70;35.80;;;;;;8329341;28;21494;-49
2022/01/12 13:58:10;;;;;;;;;;;15.80;35.80;;;;;;8329472;28;19913;-49
2022/01/12 14:02:15;;;;;;;;;;;15.80;35.70;;;;;;8330379;28;19919;-49
2022/01/12 14:06:16;;;;;;;;;;;15.80;35.70;;;;;;8328574;28;19929;-49
2022/01/12 14:10:17;;;;;;;;;;;15.90;35.70;;;;;;8329043;28;19929;-46
2022/01/12 14:14:17;;;;;;;;;;;15.80;35.60;;;;;;8329488;28;20000;-48
2022/01/12 14:18:18;;;;;;;;;;;15.90;35.70;;;;;;8329789;28;19913;-49
2022/01/12 14:22:19;;;;;;;;;;;15.90;35.60;;;;;;8329273;28;20302;-49
2022/01/12 14:26:24;;;;;;;;;;;15.80;35.60;;;;;;8329505;28;20337;-47
2022/01/12 14:30:25;;;;;;;;;;;15.90;35.70;;;;;;8329162;28;19986;-47
2022/01/12 14:34:25;;;;;;;;;;;15.90;35.70;;;;;;8328809;28;19921;-47
2022/01/12 14:38:26;;;;;;;;;;;15.90;35.70;;;;;;8329365;28;20382;-47
2022/01/12 14:42:26;;;;;;;;;;;15.90;35.80;;;;;;8329544;28;19917;-47
2022/01/12 14:46:27;;;;;;;;;;;15.90;35.80;;;;;;8328583;28;19918;-49
2022/01/12 14:50:28;;;;;;;;;;;15.90;35.80;;;;;;8329304;28;20016;-49
2022/01/12 14:54:28;;;;;;;;;;;15.90;35.80;;;;;;8333209;28;19913;-49
2022/01/12 14:58:29;;;;;;;;;;;15.90;35.80;;;;;;8334974;28;20011;-49
2022/01/12 15:02:30;;;;;;;;;;;15.80;35.80;;;;;;8335067;28;19921;-51
2022/01/12 15:06:30;;;;;;;;;;;15.90;35.80;;;;;;8334832;28;19924;-49
2022/01/12 15:10:31;;;;;;;;;;;15.80;35.80;;;;;;8333994;28;19932;-48
2022/01/12 15:14:44;;;;;;;;;;;15.80;35.80;;;;;;8334602;28;19948;-49
2022/01/12 15:18:45;;;;;;;;;;;15.80;35.80;;;;;;8336828;28;19917;-51
2022/01/12 15:22:46;;;;;;;;;;;15.80;35.80;;;;;;8334905;28;20000;-50
2022/01/12 15:26:47;;;;;;;;;;;15.80;35.90;;;;;;8334406;28;19987;-47
2022/01/12 15:30:47;;;;;;;;;;;15.80;35.80;;;;;;8333636;28;19925;-48
2022/01/12 15:34:48;;;;;;;;;;;15.80;35.90;;;;;;8334320;28;19998;-48
2022/01/12 15:38:48;;;;;;;;;;;15.80;35.80;;;;;;8334139;28;19913;-48
2022/01/12 15:42:49;;;;;;;;;;;15.80;35.90;;;;;;8333594;28;19928;-48
2022/01/12 15:46:49;;;;;;;;;;;15.80;35.80;;;;;;8333775;28;20436;-48
2022/01/12 15:50:50;;;;;;;;;;;15.80;35.80;;;;;;8333829;28;19925;-48
2022/01/12 15:54:50;;;;;;;;;;;15.80;35.70;;;;;;8332954;28;19993;-48
2022/01/12 15:58:51;;;;;;;;;;;15.70;35.70;;;;;;8333277;28;19917;-49
2022/01/12 16:02:51;;;;;;;;;;;15.70;35.80;;;;;;8333197;28;19921;-48
2022/01/12 16:06:52;;;;;;;;;;;15.70;35.80;;;;;;8332495;28;19913;-48
2022/01/12 16:10:52;;;;;;;;;;;15.70;35.80;;;;;;8333283;28;19936;-49
2022/01/12 16:14:54;;;;;;;;;;;15.70;35.80;;;;;;8332946;28;19960;-50
2022/01/12 16:18:55;;;;;;;;;;;15.70;35.80;;;;;;8332351;28;19996;-49
2022/01/12 16:22:56;;;;;;;;;;;15.70;35.80;;;;;;8332834;28;19918;-48
2022/01/12 16:26:56;;;;;;;;;;;15.70;35.80;;;;;;8332616;28;19924;-49
2022/01/12 16:30:59;;;;;;;;;;;15.70;35.80;;;;;;8331758;28;19925;-49
2022/01/12 16:35:00;;;;;;;;;;;15.70;35.80;;;;;;8332341;28;19917;-51
2022/01/12 16:39:03;;;;;;;;;;;15.70;35.80;;;;;;8332409;28;19920;-49
2022/01/12 16:43:05;;;;;;;;;;;15.60;35.80;;;;;;8331929;28;19917;-48
2022/01/12 16:47:06;;;;;;;;;;;15.60;35.80;;;;;;8332356;28;20031;-48
2022/01/12 16:51:07;;;;;;;;;;;15.60;35.90;;;;;;8331730;28;19925;-50
2022/01/12 16:55:08;;;;;;;;;;;15.60;35.80;;;;;;8331278;28;19924;-48
2022/01/12 16:59:08;;;;;;;;;;;15.60;35.80;;;;;;8331924;28;20363;-48
2022/01/12 17:03:09;;;;;;;;;;;15.70;35.90;;;;;;8329934;28;19921;-49
2022/01/12 17:07:09;;;;;;;;;;;15.70;35.80;;;;;;8330491;28;19917;-49
2022/01/12 17:11:11;;;;;;;;;;;15.70;35.80;;;;;;8330824;28;19925;-47
2022/01/12 17:15:38;;;;;;;;;;;15.70;35.70;;;;;;8330306;28;20378;-47
2022/01/12 17:19:39;;;;;;;;;;;15.80;35.70;;;;;;8312208;28;19926;-47
2022/01/12 17:23:55;;;;;;;;;;;15.80;35.70;;;;;;8330961;28;19924;-47
2022/01/12 17:28:14;;;;;;;;;;;15.80;35.70;;;;;;8330394;28;19917;-46
2022/01/12 17:32:14;;;;;;;;;;;15.80;35.70;;;;;;8330820;28;20002;-51
2022/01/12 17:36:34;;;;;;;;;;;15.80;35.70;;;;;;8330744;28;19917;-49
2022/01/12 17:40:39;;;;;;;;;;;15.80;35.70;;;;;;8330374;28;19917;-50
2022/01/12 17:44:43;;;;;;;;;;;15.80;35.70;;;;;;8330607;28;20318;-50
2022/01/12 17:48:43;;;;;;;;;;;15.80;35.70;;;;;;8330011;28;20267;-49
2022/01/12 17:52:44;;;;;;;;;;;15.80;35.70;;;;;;8329809;28;20004;-48
2022/01/12 17:56:45;;;;;;;;;;;15.80;35.70;;;;;;8330007;28;19952;-47
2022/01/12 18:00:45;;;;;;;;;;;15.80;35.60;;;;;;8329362;28;20000;-46
2022/01/12 18:04:46;;;;;;;;;;;15.70;35.60;;;;;;8330068;28;20281;-47
2022/01/12 18:08:46;;;;;;;;;;;15.70;35.60;;;;;;8330299;28;19952;-48
2022/01/12 18:12:47;;;;;;;;;;;15.70;35.70;;;;;;8329211;28;20444;-49
2022/01/12 18:16:51;;;;;;;;;;;15.70;35.60;;;;;;8329506;28;19917;-48
2022/01/12 18:20:52;;;;;;;;;;;15.70;35.70;;;;;;8329739;28;19949;-48
2022/01/12 18:24:52;;;;;;;;;;;15.70;35.70;;;;;;8329043;28;19932;-49
2022/01/12 18:28:53;;;;;;;;;;;15.70;35.70;;;;;;8334964;28;19917;-49
2022/01/12 18:32:54;;;;;;;;;;;15.70;35.70;;;;;;8335833;28;20477;-48
2022/01/12 18:36:54;;;;;;;;;;;15.70;35.70;;;;;;8335304;28;20297;-47
2022/01/12 18:40:55;;;;;;;;;;;15.70;35.70;;;;;;8335490;28;19966;-48
2022/01/12 18:44:56;;;;;;;;;;;15.60;35.70;;;;;;8335724;28;20427;-48
2022/01/12 18:48:56;;;;;;;;;;;15.60;35.70;;;;;;8335093;28;20397;-47
2022/01/12 18:52:57;;;;;;;;;;;15.60;35.70;;;;;;8335191;28;20285;-48
2022/01/12 18:56:57;;;;;;;;;;;15.60;35.80;;;;;;8335076;28;19917;-48
2022/01/12 19:00:57;;;;;;;;;;;15.60;35.90;;;;;;8334655;28;19923;-48
2022/01/12 19:04:58;;;;;;;;;;;15.60;35.80;;;;;;8335290;28;20397;-47
2022/01/12 19:08:58;;;;;;;;;;;15.60;35.80;;;;;;8334743;28;19917;-47
2022/01/12 19:12:59;;;;;;;;;;;15.60;35.80;;;;;;8334261;28;19925;-47
2022/01/12 19:16:59;;;;;;;;;;;15.60;35.80;;;;;;8334696;28;20436;-48
2022/01/12 19:21:00;;;;;;;;;;;15.60;35.80;;;;;;8334249;28;19917;-49
2022/01/12 19:25:00;;;;;;;;;;;15.60;35.80;;;;;;8334061;28;19916;-50
2022/01/12 19:29:02;;;;;;;;;;;15.50;35.80;;;;;;8332755;28;19918;-48
2022/01/12 19:33:02;;;;;;;;;;;15.50;35.80;;;;;;8334104;28;19967;-48
2022/01/12 19:37:03;;;;;;;;;;;15.50;35.80;;;;;;8333682;28;19921;-48
2022/01/12 19:41:03;;;;;;;;;;;15.50;35.70;;;;;;8333281;28;20012;-49
2022/01/12 19:45:05;;;;;;;;;;;15.50;35.80;;;;;;8334102;28;20264;-48
2022/01/12 19:49:06;;;;;;;;;;;15.50;35.80;;;;;;8361062;28;19924;-48
2022/01/12 19:53:26;;;;;;;;;;;15.60;35.80;;;;;;8366778;28;20409;-48
2022/01/12 19:57:35;;;;;;;;;;;15.60;35.70;;;;;;8366292;28;20002;-48
2022/01/12 20:01:36;;;;;;;;;;;15.60;35.70;;;;;;8365625;28;20285;-48
2022/01/12 20:05:39;;;;;;;;;;;15.60;35.70;;;;;;8366303;28;19912;-48
2022/01/12 20:09:39;;;;;;;;;;;15.60;35.60;;;;;;8359946;28;19964;-47
2022/01/12 20:13:40;;;;;;;;;;;15.70;35.60;;;;;;8359011;28;19921;-48
2022/01/12 20:22:02;;;;;;;;;;;15.70;35.60;;;;;;8324372;28;20126;-47
2022/01/12 20:26:02;;;;;;;;;;;15.70;35.60;;;;;;8365833;28;19920;-47
2022/01/12 20:30:04;;;;;;;;;;;15.70;35.50;;;;;;8365560;28;19925;-47
2022/01/12 20:34:05;;;;;;;;;;;15.70;35.50;;;;;;8364545;28;19924;-47
2022/01/12 20:38:05;;;;;;;;;;;15.70;35.50;;;;;;8365064;28;19920;-47
2022/01/12 20:42:06;;;;;;;;;;;15.70;35.40;;;;;;8365317;28;19913;-46
2022/01/12 20:46:07;;;;;;;;;;;15.70;35.50;;;;;;8364278;28;19917;-47
2022/01/12 20:50:08;;;;;;;;;;;15.60;36.00;;;;;;8363952;28;19925;-47
2022/01/12 20:54:12;;;;;;;;;;;15.60;35.40;;;;;;8364399;28;19920;-48
2022/01/12 20:58:14;;;;;;;;;;;15.60;35.40;;;;;;8363915;28;20355;-46
2022/01/12 21:02:16;;;;;;;;;;;15.60;35.40;;;;;;8364459;28;19913;-47
2022/01/12 21:06:17;;;;;;;;;;;15.60;35.50;;;;;;8364191;28;19917;-47
2022/01/12 21:10:17;;;;;;;;;;;15.60;35.50;;;;;;8363740;28;20397;-48
2022/01/12 21:14:18;;;;;;;;;;;15.50;35.40;;;;;;8364184;28;19929;-48
2022/01/12 21:18:18;;;;;;;;;;;15.50;35.50;;;;;;8363887;28;19916;-46
2022/01/12 21:22:19;;;;;;;;;;;15.50;35.50;;;;;;8363417;28;19920;-47
2022/01/12 21:26:19;;;;;;;;;;;15.50;35.50;;;;;;8363605;28;20319;-47
2022/01/12 21:30:20;;;;;;;;;;;15.50;35.50;;;;;;8363843;28;20417;-46
2022/01/12 21:34:28;;;;;;;;;;;15.50;35.50;;;;;;8363034;28;19959;-47
2022/01/12 21:42:49;;;;;;;;;;;15.50;35.60;;;;;;8363967;28;19942;-46
2022/01/12 21:46:49;;;;;;;;;;;15.40;35.60;;;;;;8363355;28;19920;-47
2022/01/12 21:50:50;;;;;;;;;;;15.40;35.60;;;;;;8363178;28;19968;-48
2022/01/12 21:54:50;;;;;;;;;;;15.40;35.50;;;;;;8362530;28;19924;-47
2022/01/12 21:58:52;;;;;;;;;;;15.40;35.60;;;;;;8362803;28;19917;-47
2022/01/12 22:02:52;;;;;;;;;;;15.40;35.50;;;;;;8362501;28;20007;-47
2022/01/12 22:06:54;;;;;;;;;;;15.50;35.50;;;;;;8362470;28;19998;-46
2022/01/12 22:10:55;;;;;;;;;;;15.50;35.50;;;;;;8362745;28;19921;-49
2022/01/12 22:14:55;;;;;;;;;;;15.50;35.50;;;;;;8362834;28;20291;-47
2022/01/12 22:18:55;;;;;;;;;;;15.50;35.40;;;;;;8362154;28;19955;-47
2022/01/12 22:22:56;;;;;;;;;;;15.50;35.40;;;;;;8362686;28;19928;-47
2022/01/12 22:26:56;;;;;;;;;;;15.50;35.30;;;;;;8362769;28;19943;-47
2022/01/12 22:30:57;;;;;;;;;;;15.50;35.40;;;;;;8362045;28;19925;-46
2022/01/12 22:34:57;;;;;;;;;;;15.50;35.30;;;;;;8362593;28;19916;-47
2022/01/12 22:38:58;;;;;;;;;;;15.50;35.20;;;;;;8362250;28;19916;-46
2022/01/12 22:43:03;;;;;;;;;;;15.50;35.20;;;;;;8361625;28;19913;-47
2022/01/12 22:47:04;;;;;;;;;;;15.50;35.30;;;;;;8363084;28;19990;-48
2022/01/12 22:51:04;;;;;;;;;;;15.50;35.30;;;;;;8362289;28;19924;-47
2022/01/12 22:55:05;;;;;;;;;;;15.50;35.30;;;;;;8361642;28;20428;-47
2022/01/12 22:59:06;;;;;;;;;;;15.40;35.30;;;;;;8362122;28;19921;-49
2022/01/12 23:03:07;;;;;;;;;;;15.50;35.30;;;;;;8360753;28;19913;-47
2022/01/12 23:07:09;;;;;;;;;;;15.40;35.30;;;;;;8360577;28;19916;-47
2022/01/12 23:11:10;;;;;;;;;;;15.40;35.30;;;;;;8362154;28;20028;-46
2022/01/12 23:15:10;;;;;;;;;;;15.40;35.40;;;;;;8365316;28;19921;-47
2022/01/12 23:19:11;;;;;;;;;;;15.40;35.40;;;;;;8367032;28;19924;-49
2022/01/12 23:23:11;;;;;;;;;;;15.40;35.40;;;;;;8367277;28;19956;-48
2022/01/12 23:27:12;;;;;;;;;;;15.30;35.40;;;;;;8367145;28;20005;-47
2022/01/12 23:31:12;;;;;;;;;;;15.30;35.40;;;;;;8366931;28;19924;-47
2022/01/12 23:54:57;;;;;;;;;;;15.40;35.30;;;;;;8366353;28;19931;-47
2022/01/12 23:57:11;;;;;;;;;;;15.40;35.20;;;;;;8366058;28;20330;-47
